createdAt,value
2017-07-10T00:01:24.920Z,95554.87
2017-07-10T00:03:54.409Z,95535.13
2017-07-10T00:06:26.856Z,95552.29
2017-07-10T00:08:56.950Z,95554.44
2017-07-10T00:11:24.627Z,95557.24
2017-07-10T00:13:52.407Z,95560.81
2017-07-10T00:16:20.010Z,95559.41
2017-07-10T00:18:47.652Z,95565.28
2017-07-10T00:21:15.302Z,95559.44
2017-07-10T00:23:42.868Z,95557.33
2017-07-10T00:26:10.508Z,95558.70
2017-07-10T00:28:38.164Z,95566.95
2017-07-10T00:31:05.851Z,95564.67
2017-07-10T00:33:34.243Z,95560.56
2017-07-10T00:36:01.876Z,95573.95
2017-07-10T00:38:29.566Z,95567.91
2017-07-10T00:40:57.249Z,95571.95
2017-07-10T00:43:24.878Z,95568.61
2017-07-10T00:45:52.542Z,95568.96
2017-07-10T00:48:20.127Z,95571.47
2017-07-10T00:50:47.885Z,95581.73
2017-07-10T00:53:16.659Z,95576.24
2017-07-10T00:55:45.775Z,95577.36
2017-07-10T00:58:14.562Z,95584.96
2017-07-10T01:00:42.274Z,95581.64
2017-07-10T01:03:10.529Z,95579.72
2017-07-10T01:05:38.140Z,95583.28
2017-07-10T01:08:05.853Z,95588.98
2017-07-10T01:10:33.512Z,95596.64
2017-07-10T01:13:01.124Z,95591.58
2017-07-10T01:15:29.079Z,95591.47
2017-07-10T01:17:57.873Z,95592.84
2017-07-10T01:20:25.675Z,95589.28
2017-07-10T01:22:54.177Z,95587.09
2017-07-10T01:25:21.811Z,95587.14
2017-07-10T01:27:49.784Z,95600.96
2017-07-10T01:30:17.848Z,95599.02
2017-07-10T01:32:45.506Z,95596.66
2017-07-10T01:35:14.687Z,95602.80
2017-07-10T01:37:43.813Z,95607.23
2017-07-10T01:40:11.925Z,95609.17
2017-07-10T01:42:41.505Z,95608.11
2017-07-10T01:45:10.083Z,95606.47
2017-07-10T01:47:38.652Z,95606.09
2017-07-10T01:50:07.186Z,95608.01
2017-07-10T01:52:35.946Z,95606.02
2017-07-10T01:55:04.340Z,95603.16
2017-07-10T01:57:32.990Z,95595.92
2017-07-10T02:00:01.527Z,95601.72
2017-07-10T02:02:29.954Z,95595.63
2017-07-10T02:04:57.733Z,95601.21
2017-07-10T02:07:26.243Z,95599.59
2017-07-10T02:09:54.590Z,95601.50
2017-07-10T02:12:23.041Z,95599.70
2017-07-10T02:14:50.639Z,95597.70
2017-07-10T02:17:18.327Z,95598.11
2017-07-10T02:19:46.013Z,95599.50
2017-07-10T02:22:13.786Z,95602.30
2017-07-10T02:24:41.425Z,95597.41
2017-07-10T02:27:09.431Z,95596.05
2017-07-10T02:29:37.247Z,95593.29
2017-07-10T02:32:05.048Z,95593.94
2017-07-10T02:34:33.920Z,95596.09
2017-07-10T02:37:01.579Z,95598.12
2017-07-10T02:39:29.901Z,95589.72
2017-07-10T02:41:57.552Z,95593.29
2017-07-10T02:44:25.145Z,95601.55
2017-07-10T02:46:54.225Z,95611.42
2017-07-10T02:49:23.370Z,95603.37
2017-07-10T02:51:50.983Z,95598.55
2017-07-10T02:54:18.840Z,95606.21
2017-07-10T02:56:46.421Z,95592.62
2017-07-10T02:59:14.070Z,95591.69
2017-07-10T03:01:41.704Z,95592.79
2017-07-10T03:04:09.307Z,95589.04
2017-07-10T03:06:36.895Z,95594.47
2017-07-10T03:09:04.579Z,95600.85
2017-07-10T03:11:32.403Z,95606.41
2017-07-10T03:14:00.016Z,95595.66
2017-07-10T03:16:27.646Z,95610.78
2017-07-10T03:18:55.366Z,95597.03
2017-07-10T03:21:23.863Z,95597.43
2017-07-10T03:23:51.489Z,95602.92
2017-07-10T03:26:19.137Z,95597.80
2017-07-10T03:28:46.825Z,95601.91
2017-07-10T03:31:14.413Z,95603.04
2017-07-10T03:33:42.026Z,95596.68
2017-07-10T03:36:09.637Z,95595.23
2017-07-10T03:38:37.295Z,95598.16
2017-07-10T03:41:05.519Z,95595.02
2017-07-10T03:43:33.282Z,95597.69
2017-07-10T03:46:00.971Z,95600.36
2017-07-10T03:48:28.565Z,95605.25
2017-07-10T03:50:56.777Z,95615.88
2017-07-10T03:53:24.395Z,95614.82
2017-07-10T03:55:52.186Z,95620.48
2017-07-10T03:58:19.837Z,95620.32
2017-07-10T04:00:47.491Z,95623.41
2017-07-10T04:03:15.079Z,95625.58
2017-07-10T04:05:42.745Z,95622.29
2017-07-10T04:08:10.432Z,95617.80
2017-07-10T04:10:38.303Z,95617.83
2017-07-10T04:13:05.953Z,95618.39
2017-07-10T04:15:33.602Z,95625.00
2017-07-10T04:18:01.342Z,95626.09
2017-07-10T04:20:28.970Z,95625.11
2017-07-10T04:22:56.627Z,95625.00
2017-07-10T04:25:24.415Z,95631.20
2017-07-10T04:27:52.139Z,95631.28
2017-07-10T04:30:21.991Z,95635.45
2017-07-10T04:32:53.224Z,95642.63
2017-07-10T04:38:41.435Z,95647.88
2017-07-10T04:41:09.235Z,95644.04
2017-07-10T04:43:36.875Z,95649.78
2017-07-10T04:46:04.471Z,95645.55
2017-07-10T04:48:32.136Z,95643.42
2017-07-10T04:50:59.685Z,95641.73
2017-07-10T04:53:27.445Z,95645.20
2017-07-10T04:55:55.135Z,95648.01
2017-07-10T04:58:22.931Z,95645.90
2017-07-10T05:00:50.603Z,95655.87
2017-07-10T05:03:18.146Z,95664.31
2017-07-10T05:05:45.725Z,95663.28
2017-07-10T05:08:13.306Z,95658.04
2017-07-10T05:10:40.842Z,95667.08
2017-07-10T05:13:08.426Z,95657.22
2017-07-10T05:15:37.081Z,95663.44
2017-07-10T05:18:04.631Z,95671.16
2017-07-10T05:20:32.186Z,95668.51
2017-07-10T05:22:59.795Z,95669.95
2017-07-10T05:25:27.377Z,95663.73
2017-07-10T05:27:54.926Z,95674.82
2017-07-10T05:30:22.644Z,95671.50
2017-07-10T05:32:50.581Z,95667.83
2017-07-10T05:35:18.138Z,95668.50
2017-07-10T05:37:45.741Z,95674.02
2017-07-10T05:40:13.386Z,95675.92
2017-07-10T05:42:41.183Z,95678.48
2017-07-10T05:45:08.786Z,95684.58
2017-07-10T05:47:37.478Z,95680.97
2017-07-10T05:50:05.123Z,95692.08
2017-07-10T05:52:32.711Z,95686.67
2017-07-10T05:55:00.351Z,95683.99
2017-07-10T05:57:27.909Z,95679.13
2017-07-10T05:59:55.509Z,95682.35
2017-07-10T06:02:23.109Z,95678.05
2017-07-10T06:04:50.886Z,95676.07
2017-07-10T06:07:18.716Z,95680.32
2017-07-10T06:09:46.270Z,95676.39
2017-07-10T06:12:13.828Z,95678.64
2017-07-10T06:14:41.370Z,95678.84
2017-07-10T06:17:09.022Z,95674.70
2017-07-10T06:19:36.609Z,95678.80
2017-07-10T06:22:04.865Z,95674.66
2017-07-10T06:24:32.443Z,95679.44
2017-07-10T06:27:00.049Z,95666.52
2017-07-10T06:29:27.635Z,95677.09
2017-07-10T06:31:55.419Z,95666.52
2017-07-10T06:34:23.063Z,95675.11
2017-07-10T06:36:51.286Z,95670.23
2017-07-10T06:39:18.950Z,95662.97
2017-07-10T06:41:46.518Z,95665.30
2017-07-10T06:44:15.634Z,95654.36
2017-07-10T06:46:43.215Z,95661.63
2017-07-10T06:49:10.993Z,95656.96
2017-07-10T06:51:38.523Z,95659.75
2017-07-10T06:54:06.200Z,95656.78
2017-07-10T06:56:34.476Z,95655.89
2017-07-10T06:59:02.047Z,95652.52
2017-07-10T07:01:29.670Z,95651.47
2017-07-10T07:03:57.250Z,95665.03
2017-07-10T07:06:24.828Z,95647.20
2017-07-10T07:08:52.431Z,95656.39
2017-07-10T07:11:24.010Z,95651.98
2017-07-10T07:13:51.784Z,95654.25
2017-07-10T07:16:19.513Z,95650.64
2017-07-10T07:18:47.487Z,95643.25
2017-07-10T07:21:15.271Z,95650.00
2017-07-10T07:23:44.138Z,95647.80
2017-07-10T07:26:11.689Z,95652.37
2017-07-10T07:28:39.484Z,95644.34
2017-07-10T07:31:07.097Z,95639.74
2017-07-10T07:33:34.652Z,95642.73
2017-07-10T07:36:02.339Z,95640.32
2017-07-10T07:38:30.109Z,95637.45
2017-07-10T07:40:57.924Z,95643.80
2017-07-10T07:43:25.505Z,95637.03
2017-07-10T07:45:53.346Z,95647.72
2017-07-10T07:48:20.960Z,95644.89
2017-07-10T07:50:48.519Z,95647.22
2017-07-10T07:53:16.224Z,95641.83
2017-07-10T07:55:44.116Z,95642.02
2017-07-10T07:58:11.920Z,95644.12
2017-07-10T08:00:39.540Z,95643.72
2017-07-10T08:03:07.134Z,95655.61
2017-07-10T08:05:34.734Z,95636.86
2017-07-10T08:08:02.327Z,95640.22
2017-07-10T08:10:30.153Z,95635.19
2017-07-10T08:12:57.781Z,95641.24
2017-07-10T08:15:25.406Z,95639.45
2017-07-10T08:17:53.031Z,95638.83
2017-07-10T08:20:20.590Z,95639.73
2017-07-10T08:22:48.485Z,95633.41
2017-07-10T08:25:16.066Z,95644.83
2017-07-10T08:27:43.728Z,95634.55
2017-07-10T08:30:11.417Z,95625.98
2017-07-10T08:32:38.979Z,95624.24
2017-07-10T08:35:06.546Z,95635.02
2017-07-10T08:37:34.349Z,95624.13
2017-07-10T08:40:01.924Z,95629.20
2017-07-10T08:42:29.503Z,95622.31
2017-07-10T08:44:57.081Z,95619.63
2017-07-10T08:47:24.648Z,95619.21
2017-07-10T08:49:52.355Z,95617.48
2017-07-10T08:52:19.946Z,95620.17
2017-07-10T08:54:47.498Z,95618.77
2017-07-10T08:57:15.337Z,95620.80
2017-07-10T08:59:42.928Z,95620.73
2017-07-10T09:02:10.554Z,95615.43
2017-07-10T09:04:38.230Z,95618.20
2017-07-10T09:07:05.818Z,95620.64
2017-07-10T09:09:33.662Z,95619.97
2017-07-10T09:12:01.406Z,95614.47
2017-07-10T09:14:30.054Z,95615.30
2017-07-10T09:16:57.872Z,95610.88
2017-07-10T09:19:25.581Z,95615.83
2017-07-10T09:21:53.142Z,95601.20
2017-07-10T09:24:21.223Z,95602.33
2017-07-10T09:26:48.860Z,95608.09
2017-07-10T09:29:16.660Z,95612.63
2017-07-10T09:31:44.762Z,95612.84
2017-07-10T09:34:12.371Z,95606.07
2017-07-10T09:36:39.988Z,95608.47
2017-07-10T09:39:07.629Z,95608.82
2017-07-10T09:41:36.161Z,95609.94
2017-07-10T09:44:04.096Z,95602.55
2017-07-10T09:46:31.704Z,95603.05
2017-07-10T09:48:59.578Z,95601.20
2017-07-10T09:51:27.108Z,95600.66
2017-07-10T09:53:54.759Z,95590.27
2017-07-10T09:56:24.018Z,95590.56
2017-07-10T09:58:51.563Z,95595.45
2017-07-10T10:01:19.304Z,95583.73
2017-07-10T10:03:46.924Z,95582.95
2017-07-10T10:06:15.521Z,95582.22
2017-07-10T10:08:43.101Z,95585.44
2017-07-10T10:11:13.856Z,95593.45
2017-07-10T10:13:41.452Z,95592.52
2017-07-10T10:16:09.076Z,95588.55
2017-07-10T10:18:36.884Z,95580.00
2017-07-10T10:21:04.696Z,95587.71
2017-07-10T10:23:32.841Z,95587.48
2017-07-10T10:26:00.965Z,95583.22
2017-07-10T10:28:28.502Z,95586.07
2017-07-10T10:30:56.129Z,95572.03
2017-07-10T10:33:23.665Z,95569.35
2017-07-10T10:35:51.293Z,95571.35
2017-07-10T10:38:18.906Z,95568.27
2017-07-10T10:40:47.238Z,95559.08
2017-07-10T10:43:14.818Z,95565.55
2017-07-10T10:45:42.471Z,95563.13
2017-07-10T10:48:10.014Z,95567.00
2017-07-10T10:50:37.628Z,95556.10
2017-07-10T10:53:05.231Z,95547.89
2017-07-10T10:55:32.798Z,95549.66
2017-07-10T10:58:00.630Z,95559.45
2017-07-10T11:00:28.265Z,95547.30
2017-07-10T11:02:55.808Z,95550.06
2017-07-10T11:05:23.420Z,95544.59
2017-07-10T11:07:51.009Z,95540.64
2017-07-10T11:10:18.590Z,95529.11
2017-07-10T11:12:46.381Z,95529.09
2017-07-10T11:15:13.993Z,95527.60
2017-07-10T11:17:41.566Z,95522.62
2017-07-10T11:20:09.133Z,95529.31
2017-07-10T11:22:36.739Z,95530.27
2017-07-10T11:25:05.018Z,95529.77
2017-07-10T11:27:32.584Z,95529.83
2017-07-10T11:30:00.211Z,95531.23
2017-07-10T11:32:27.790Z,95523.50
2017-07-10T11:34:55.448Z,95518.80
2017-07-10T11:37:23.034Z,95518.31
2017-07-10T11:39:50.838Z,95518.70
2017-07-10T11:42:18.583Z,95508.55
2017-07-10T11:44:46.163Z,95509.02
2017-07-10T11:47:13.714Z,95514.05
2017-07-10T11:49:41.475Z,95514.23
2017-07-10T11:52:09.218Z,95506.22
2017-07-10T11:54:36.826Z,95507.83
2017-07-10T11:57:04.419Z,95496.19
2017-07-10T11:59:33.865Z,95494.20
2017-07-10T12:02:01.417Z,95503.60
2017-07-10T12:04:28.975Z,95497.34
2017-07-10T12:06:56.563Z,95495.05
2017-07-10T12:09:24.150Z,95490.01
2017-07-10T12:11:51.817Z,95491.25
2017-07-10T12:14:19.591Z,95487.91
2017-07-10T12:16:47.194Z,95474.75
2017-07-10T12:19:15.055Z,95479.73
2017-07-10T12:21:42.581Z,95476.55
2017-07-10T12:24:10.136Z,95473.38
2017-07-10T12:26:38.014Z,95476.71
2017-07-10T12:29:05.667Z,95478.46
2017-07-10T12:31:33.316Z,95471.72
2017-07-10T12:34:01.748Z,95478.33
2017-07-10T12:36:29.560Z,95467.78
2017-07-10T12:38:57.181Z,95467.26
2017-07-10T12:41:24.757Z,95468.33
2017-07-10T12:43:52.503Z,95465.15
2017-07-10T12:46:20.644Z,95458.14
2017-07-10T12:48:48.188Z,95462.48
2017-07-10T12:51:15.726Z,95460.13
2017-07-10T12:53:43.336Z,95450.59
2017-07-10T12:56:11.231Z,95465.70
2017-07-10T12:58:38.740Z,95453.14
2017-07-10T13:01:06.335Z,95452.14
2017-07-10T13:03:33.910Z,95453.48
2017-07-10T13:06:01.437Z,95452.43
2017-07-10T13:08:29.039Z,95450.76
2017-07-10T13:10:56.647Z,95443.37
2017-07-10T13:13:24.239Z,95441.45
2017-07-10T13:15:51.870Z,95440.44
2017-07-10T13:18:19.406Z,95439.63
2017-07-10T13:20:46.937Z,95439.06
2017-07-10T13:23:14.519Z,95433.98
2017-07-10T13:25:42.050Z,95428.82
2017-07-10T13:28:09.566Z,95425.83
2017-07-10T13:30:37.234Z,95416.08
2017-07-10T13:33:04.879Z,95424.78
2017-07-10T13:35:32.680Z,95427.63
2017-07-10T13:38:00.258Z,95432.94
2017-07-10T13:40:27.913Z,95426.41
2017-07-10T13:42:55.446Z,95420.66
2017-07-10T13:45:23.022Z,95415.89
2017-07-10T13:47:50.759Z,95417.69
2017-07-10T13:50:18.380Z,95423.62
2017-07-10T13:52:46.148Z,95425.17
2017-07-10T13:55:13.683Z,95419.16
2017-07-10T13:57:41.238Z,95418.25
2017-07-10T14:00:09.820Z,95418.78
2017-07-10T14:02:37.434Z,95421.38
2017-07-10T14:05:05.262Z,95421.33
2017-07-10T14:07:32.889Z,95419.65
2017-07-10T14:10:01.329Z,95417.16
2017-07-10T14:12:29.207Z,95415.63
2017-07-10T14:14:56.811Z,95410.94
2017-07-10T14:17:24.315Z,95405.30
2017-07-10T14:19:51.858Z,95402.19
2017-07-10T14:22:19.455Z,95406.94
2017-07-10T14:24:47.079Z,95398.93
2017-07-10T14:27:14.646Z,95392.77
2017-07-10T14:29:42.227Z,95396.74
2017-07-10T14:32:09.801Z,95392.69
2017-07-10T14:34:37.422Z,95399.75
2017-07-10T14:37:05.022Z,95397.08
2017-07-10T14:39:32.654Z,95386.64
2017-07-10T14:42:00.303Z,95388.52
2017-07-10T14:44:28.044Z,95385.95
2017-07-10T14:46:55.672Z,95385.94
2017-07-10T14:49:23.245Z,95386.63
2017-07-10T14:51:50.815Z,95388.97
2017-07-10T14:54:18.424Z,95383.29
2017-07-10T14:56:45.960Z,95382.33
2017-07-10T14:59:13.745Z,95382.14
2017-07-10T15:01:42.659Z,95373.58
2017-07-10T15:04:10.231Z,95371.58
2017-07-10T15:06:37.817Z,95374.13
2017-07-10T15:09:05.569Z,95372.48
2017-07-10T15:11:33.128Z,95371.20
2017-07-10T15:14:00.693Z,95387.23
2017-07-10T15:16:28.441Z,95379.82
2017-07-10T15:18:56.049Z,95391.32
2017-07-10T15:21:24.126Z,95392.56
2017-07-10T15:23:52.333Z,95387.27
2017-07-10T15:26:19.941Z,95386.16
2017-07-10T15:28:49.060Z,95405.87
2017-07-10T15:31:17.491Z,95395.74
2017-07-10T15:33:45.166Z,95396.21
2017-07-10T15:36:12.718Z,95413.05
2017-07-10T15:38:40.307Z,95415.02
2017-07-10T15:41:07.875Z,95406.98
2017-07-10T15:43:35.609Z,95409.61
2017-07-10T15:46:03.232Z,95411.09
2017-07-10T15:48:30.797Z,95403.31
2017-07-10T15:50:58.345Z,95403.51
2017-07-10T15:53:25.990Z,95402.97
2017-07-10T15:55:53.614Z,95407.92
2017-07-10T15:58:21.389Z,95406.47
2017-07-10T16:00:51.239Z,95409.80
2017-07-10T16:03:18.896Z,95409.84
2017-07-10T16:05:46.439Z,95415.89
2017-07-10T16:08:14.042Z,95413.36
2017-07-10T16:10:42.911Z,95417.86
2017-07-10T16:13:10.495Z,95419.11
2017-07-10T16:15:38.096Z,95421.13
2017-07-10T16:18:06.546Z,95429.74
2017-07-10T16:20:34.175Z,95422.18
2017-07-10T16:23:01.807Z,95424.33
2017-07-10T16:25:29.776Z,95433.58
2017-07-10T16:27:57.377Z,95426.13
2017-07-10T16:30:24.993Z,95426.53
2017-07-10T16:32:52.614Z,95434.91
2017-07-10T16:35:20.302Z,95424.83
2017-07-10T16:37:47.924Z,95428.86
2017-07-10T16:40:16.121Z,95430.97
2017-07-10T16:42:44.329Z,95432.66
2017-07-10T16:45:12.018Z,95429.08
2017-07-10T16:47:39.687Z,95433.41
2017-07-10T16:50:07.293Z,95454.74
2017-07-10T16:52:35.468Z,95449.83
2017-07-10T16:55:03.227Z,95434.13
2017-07-10T16:57:30.762Z,95434.43
2017-07-10T16:59:58.417Z,95441.86
2017-07-10T17:02:26.135Z,95440.84
2017-07-10T17:04:53.729Z,95442.33
2017-07-10T17:07:21.331Z,95443.80
2017-07-10T17:32:12.808Z,95447.49
2017-07-10T17:34:40.436Z,95445.11
2017-07-10T17:37:08.011Z,95454.46
2017-07-10T17:39:36.483Z,95455.75
2017-07-10T17:42:04.160Z,95457.64
2017-07-10T17:44:31.784Z,95454.24
2017-07-10T17:46:59.553Z,95461.39
2017-07-10T17:49:27.358Z,95464.98
2017-07-10T17:51:55.038Z,95465.17
2017-07-10T17:54:22.786Z,95461.61
2017-07-10T17:56:50.435Z,95466.73
2017-07-10T17:59:18.226Z,95470.44
2017-07-10T18:01:45.886Z,95464.31
2017-07-10T18:04:13.437Z,95464.63
2017-07-10T18:06:41.036Z,95468.58
2017-07-10T18:09:08.731Z,95475.94
2017-07-10T18:11:36.395Z,95469.25
2017-07-10T18:14:04.053Z,95469.98
2017-07-10T18:16:32.640Z,95487.78
2017-07-10T18:19:00.244Z,95478.16
2017-07-10T18:21:28.476Z,95478.73
2017-07-10T18:23:56.999Z,95487.57
2017-07-10T18:26:24.631Z,95487.50
2017-07-10T18:28:52.232Z,95489.47
2017-07-10T18:31:19.911Z,95490.58
2017-07-10T18:33:47.572Z,95490.34
2017-07-10T18:36:15.207Z,95489.70
2017-07-10T18:38:43.077Z,95483.62
2017-07-10T18:41:10.718Z,95493.42
2017-07-10T18:43:38.339Z,95488.36
2017-07-10T18:46:05.902Z,95493.62
2017-07-10T18:48:33.485Z,95496.28
2017-07-10T18:51:01.099Z,95503.23
2017-07-10T18:53:28.932Z,95508.08
2017-07-10T18:55:56.513Z,95509.02
2017-07-10T18:58:24.338Z,95512.17
2017-07-10T19:00:51.967Z,95509.91
2017-07-10T19:03:20.350Z,95516.78
2017-07-10T19:05:47.961Z,95509.12
2017-07-10T19:08:15.771Z,95518.91
2017-07-10T19:10:43.383Z,95518.55
2017-07-10T19:13:10.979Z,95516.63
2017-07-10T19:15:38.589Z,95527.14
2017-07-10T19:18:07.831Z,95528.86
2017-07-10T19:20:35.429Z,95517.30
2017-07-10T19:23:03.123Z,95523.64
2017-07-10T19:25:30.746Z,95524.12
2017-07-10T19:27:58.276Z,95524.58
2017-07-10T19:30:26.137Z,95522.53
2017-07-10T19:32:53.945Z,95532.09
2017-07-10T19:35:21.502Z,95528.45
2017-07-10T19:37:49.707Z,95528.83
2017-07-10T19:40:17.429Z,95528.95
2017-07-10T19:42:45.034Z,95541.76
2017-07-10T19:45:12.664Z,95537.41
2017-07-10T19:47:40.281Z,95559.63
2017-07-10T19:50:08.003Z,95547.64
2017-07-10T19:52:35.754Z,95547.62
2017-07-10T19:55:03.392Z,95551.44
2017-07-10T19:57:31.075Z,95553.89
2017-07-10T19:59:59.354Z,95560.53
2017-07-10T20:02:27.001Z,95559.15
2017-07-10T20:04:55.229Z,95553.33
2017-07-10T20:07:22.895Z,95551.75
2017-07-10T20:09:50.543Z,95553.92
2017-07-10T20:12:18.953Z,95561.92
2017-07-10T20:14:47.537Z,95565.52
2017-07-10T20:17:15.340Z,95558.25
2017-07-10T20:19:44.063Z,95566.16
2017-07-10T20:22:11.813Z,95566.21
2017-07-10T20:24:40.270Z,95561.10
2017-07-10T20:27:07.873Z,95563.48
2017-07-10T20:29:35.563Z,95559.58
2017-07-10T20:32:04.866Z,95569.84
2017-07-10T20:34:32.563Z,95574.16
2017-07-10T20:37:00.298Z,95579.06
2017-07-10T20:39:28.050Z,95572.39
2017-07-10T20:41:57.798Z,95584.92
2017-07-10T20:44:25.750Z,95579.96
2017-07-10T20:46:53.480Z,95574.66
2017-07-10T20:49:21.203Z,95584.56
2017-07-10T20:51:48.948Z,95590.30
2017-07-10T20:54:18.394Z,95593.77
2017-07-10T20:56:46.588Z,95592.83
2017-07-10T20:59:14.216Z,95582.20
2017-07-10T21:01:41.874Z,95580.47
2017-07-10T21:04:09.465Z,95584.30
2017-07-10T21:06:37.110Z,95584.94
2017-07-10T21:09:04.876Z,95578.66
2017-07-10T21:11:32.540Z,95579.98
2017-07-10T21:14:00.163Z,95589.23
2017-07-10T21:16:28.622Z,95593.72
2017-07-10T21:18:56.351Z,95591.60
2017-07-10T21:21:25.111Z,95594.80
2017-07-10T21:23:52.747Z,95596.86
2017-07-10T21:26:21.397Z,95595.53
2017-07-10T21:28:49.227Z,95593.66
2017-07-10T21:31:17.959Z,95600.90
2017-07-10T21:33:45.864Z,95599.84
2017-07-10T21:36:15.233Z,95598.16
2017-07-10T21:38:43.468Z,95603.84
2017-07-10T21:41:11.715Z,95602.05
2017-07-10T21:43:39.639Z,95591.50
2017-07-10T21:46:07.279Z,95596.83
2017-07-10T21:48:35.061Z,95602.01
2017-07-10T21:51:02.642Z,95605.17
2017-07-10T21:53:34.879Z,95607.03
2017-07-10T21:56:02.506Z,95605.69
2017-07-10T21:58:36.308Z,95607.66
2017-07-10T22:01:06.963Z,95604.50
2017-07-10T22:03:35.378Z,95613.08
2017-07-10T22:06:05.821Z,95618.20
2017-07-10T22:08:36.442Z,95618.25
2017-07-10T22:11:05.437Z,95616.50
2017-07-10T22:13:35.945Z,95622.26
2017-07-10T22:16:06.490Z,95619.80
2017-07-10T22:18:34.146Z,95624.20
2017-07-10T22:21:02.516Z,95615.24
2017-07-10T22:23:30.181Z,95621.66
2017-07-10T22:25:57.990Z,95621.23
2017-07-10T22:28:25.656Z,95624.45
2017-07-10T22:30:53.328Z,95625.53
2017-07-10T22:33:21.176Z,95626.59
2017-07-10T22:35:48.922Z,95632.66
2017-07-10T22:38:16.559Z,95627.25
2017-07-10T22:40:44.585Z,95640.03
2017-07-10T22:43:12.224Z,95629.75
2017-07-10T22:45:39.834Z,95637.23
2017-07-10T22:48:07.515Z,95640.33
2017-07-10T22:50:35.174Z,95637.13
2017-07-10T22:53:02.897Z,95633.87
2017-07-10T22:55:30.533Z,95645.64
2017-07-10T22:57:58.151Z,95646.91
2017-07-10T23:00:25.896Z,95640.77
2017-07-10T23:02:53.740Z,95639.39
2017-07-10T23:05:21.573Z,95627.64
2017-07-10T23:07:49.245Z,95635.36
2017-07-10T23:10:17.005Z,95638.12
2017-07-10T23:12:44.684Z,95634.41
2017-07-10T23:15:12.392Z,95639.73
2017-07-10T23:17:40.192Z,95640.59
2017-07-10T23:20:08.513Z,95644.47
2017-07-10T23:22:36.204Z,95644.00
2017-07-10T23:25:03.841Z,95651.60
2017-07-10T23:27:31.485Z,95647.00
2017-07-10T23:30:00.103Z,95649.06
2017-07-10T23:32:27.753Z,95641.80
2017-07-10T23:34:55.543Z,95637.89
2017-07-10T23:37:23.344Z,95645.65
2017-07-10T23:39:51.122Z,95641.80
2017-07-10T23:42:19.313Z,95639.08
2017-07-10T23:44:46.887Z,95635.27
2017-07-10T23:47:15.495Z,95642.70
2017-07-10T23:49:43.182Z,95635.66
2017-07-10T23:52:10.786Z,95642.82
2017-07-10T23:54:38.426Z,95646.99
2017-07-10T23:57:06.060Z,95648.30
2017-07-10T23:59:33.702Z,95650.38
